• Join FlightAware (Why Join?)
  • Login
  • US Flag 
11:50PM EDT


 

Airport Tracker/Info


-or-


 

Live Flight TrackerFlight Track Log ✈ FLG3429 ✈ 21-Jun-2013 ✈ KPSC - KMSP

Flight Track Log - Related Links

Times and Time Zones

All times are in EDT time to prevent confusion due to time zone crossing. See the FLG3429 flight status page for this flight to view local times or setup timezone preferences in your user account.

Time Position Orientation Groundspeed Altitude Reporting Facility
EDT Latitude Longitude Course Direction KTS MPH feet Rate Location/Type
04:20PM 46.3275 -119.1778 72° East 205 236 3,300  Level Salt Lake Center
04:21PM 46.3908 -119.1481 18° North 235 270 5,000 2,040 Climbing Salt Lake Center
04:22PM 46.3991 -118.4765 73° East  Level FlightAware Approximate
04:22PM 46.4594 -119.1139 19° North 255 293 7,600  Level Salt Lake Center
04:23PM 46.4339 -118.3141 72° East  Level FlightAware Approximate
04:23PM 46.5172 -119.0244 47° Northeast 282 325 10,700  Level Seattle Center
04:24PM 46.4701 -118.1522 72° East  Level FlightAware Approximate
04:24PM 46.5292 -118.9097 81° East 287 330 12,600  Level Seattle Center
04:25PM 46.5075 -117.9839 72° East  Level FlightAware Approximate
04:25PM 46.5400 -118.7886 83° East 329 379 13,700  Level Seattle Center
04:26PM 46.5531 -118.6508 82° East 344 396 15,900 1,860 Climbing Seattle Center
04:27PM 46.5650 -118.5103 83° East 353 406 17,500 1,500 Climbing Seattle Center
04:28PM 46.5786 -118.3631 82° East 367 422 19,000 1,680 Climbing Seattle Center
04:29PM 46.5958 -118.1878 82° East 368 423 21,000 1,620 Climbing Seattle Center
04:30PM 46.6100 -118.0350 82° East 376 433 22,400 1,320 Climbing Seattle Center
04:31PM 46.6219 -117.8758 84° East 393 452 23,800 1,260 Climbing Seattle Center
04:32PM 46.6378 -117.7175 82° East 396 456 25,100 1,200 Climbing Seattle Center
04:33PM 46.6533 -117.5575 82° East 401 461 26,300 1,080 Climbing Seattle Center
04:34PM 46.6686 -117.3939 82° East 408 470 27,400 900 Climbing Seattle Center
04:36PM 46.6989 -117.0625 82° East 418 481 29,200 1,140 Climbing Seattle Center
04:37PM 46.7181 -116.8628 82° East 418 481 31,000 1,260 Climbing Seattle Center
04:38PM 46.7317 -116.7011 83° East 408 470 31,800 720 Climbing Seattle Center
04:39PM 46.7464 -116.5350 83° East 413 475 32,500 600 Climbing Seattle Center
04:40PM 46.7606 -116.3650 83° East 422 486 33,100 540 Climbing Seattle Center
04:41PM 46.7756 -116.1944 83° East 427 491 33,700 540 Climbing Seattle Center
04:42PM 46.7897 -116.0222 83° East 429 494 34,300 420 Climbing Seattle Center
04:44PM 46.8189 -115.6689 83° East 440 506 35,000 180 Climbing Seattle Center
04:45PM 46.8353 -115.4494 84° East 451 519 35,000  Level Seattle Center
04:46PM 46.8500 -115.2669 83° East 458 527 35,000  Level Seattle Center
04:47PM 46.8636 -115.0789 84° East 465 535 35,000  Level Seattle Center
04:48PM 46.8772 -114.8939 84° East 462 532 35,000  Level Seattle Center
04:49PM 46.8911 -114.7075 84° East 464 534 35,000  Level Seattle Center
04:50PM 46.9036 -114.5206 84° East 464 534 35,000  Level Seattle Center
04:52PM 46.9158 -114.3308 85° East 468 539 35,000  Level Seattle Center
04:53PM 46.9286 -114.1439 84° East 467 537 35,000  Level Seattle Center
04:54PM 46.9428 -113.9206 85° East 465 535 35,000  Level Seattle Center
04:55PM 46.9544 -113.7342 85° East 463 533 35,000  Level Seattle Center
04:56PM 46.9686 -113.5097 85° East 463 533 35,000  Level Salt Lake Center
04:57PM 46.9819 -113.2872 85° East 460 529 35,000  Level Salt Lake Center
04:58PM 46.9922 -113.1008 85° East 460 529 35,000  Level Salt Lake Center
04:59PM 47.0022 -112.9156 85° East 459 528 35,000  Level Salt Lake Center
05:00PM 47.0139 -112.7081 85° East 460 529 35,000 -60 Level Salt Lake Center
05:02PM 47.0271 -112.4502 86° East  Level FlightAware Approximate
05:03PM 47.0431 -112.1522 86° East 461 531 34,900  Level Salt Lake Center
05:04PM 47.0508 -111.9625 86° East 468 539 35,000  Climbing Salt Lake Center
05:05PM 47.0600 -111.7711 86° East 473 544 35,000  Level Salt Lake Center
05:06PM 47.0694 -111.5408 86° East 476 548 35,000  Level Salt Lake Center
05:07PM 47.0781 -111.3494 86° East 476 548 35,000  Level Salt Lake Center
05:08PM 47.0856 -111.1589 87° East 474 545 35,000  Level Salt Lake Center
05:09PM 47.0825 -111.2036 86° East  Level FlightAware Approximate
05:09PM 47.0928 -110.9703 87° East 471 542 35,000  Level Salt Lake Center
05:10PM 47.0989 -110.7814 87° East 468 539 35,000  Level Salt Lake Center
05:11PM 47.1083 -110.5564 86° East 465 535 35,000  Level Salt Lake Center
05:12PM 47.1128 -110.3675 88° East 466 536 35,000  Level Salt Lake Center
05:13PM 47.1194 -110.1789 87° East 465 535 35,000  Level Salt Lake Center
05:14PM 47.1106 -109.9919 94° East 462 532 35,000  Level Salt Lake Center
05:16PM 47.1003 -109.8042 95° East 464 534 35,000  Level Salt Lake Center
05:17PM 47.0928 -109.6167 93° East 463 533 35,000  Level Salt Lake Center
05:18PM 47.0847 -109.3900 93° East 465 535 35,000  Level Salt Lake Center
05:19PM 47.0783 -109.2008 93° East 466 536 35,000  Level Salt Lake Center
05:20PM 47.0814 -109.0072 89° East 470 541 35,000  Level Salt Lake Center
05:21PM 47.0864 -108.7986 88° East 472 543 35,000  Level Salt Lake Center
05:22PM 47.0906 -108.6072 88° East 471 542 35,000  Level Salt Lake Center
05:23PM 47.0953 -108.4153 88° East 472 543 35,000  Level Salt Lake Center
05:24PM 47.1022 -108.2039 87° East 473 544 35,000  Level Salt Lake Center
05:25PM 47.1061 -108.0111 88° East 474 545 35,000  Level Salt Lake Center
05:26PM 47.1089 -107.8364 89° East 476 548 35,000  Level Salt Lake Center
05:27PM 47.1111 -107.6417 89° East 478 550 35,000  Level Salt Lake Center
05:28PM 47.1136 -107.4075 89° East 479 551 35,000  Level Salt Lake Center
05:29PM 47.1172 -107.2147 88° East 476 548 35,000  Level Salt Lake Center
05:30PM 47.1181 -107.0219 90° East 475 547 35,000  Level Salt Lake Center
05:31PM 47.1194 -106.8289 89° East 475 547 35,000  Level Salt Lake Center
05:32PM 47.1203 -106.6375 90° East 473 544 35,000  Level Salt Lake Center
05:33PM 47.1211 -106.4428 90° East 476 548 35,000  Level Salt Lake Center
05:34PM 47.1189 -106.2094 91° East 477 549 35,000  Level Salt Lake Center
05:35PM 47.1197 -106.0178 90° East 476 548 35,000 -60 Level Salt Lake Center
05:36PM 47.1197 -105.8261 90° East 474 545 34,900  Descending Salt Lake Center
05:37PM 47.1189 -105.6356 90° East 472 543 35,000  Climbing Salt Lake Center
05:38PM 47.1183 -105.4456 90° East 470 541 35,000  Level Salt Lake Center
05:39PM 47.1189 -105.2564 90° East 468 539 35,000  Level Salt Lake Center
05:41PM 47.1151 -105.0318 91° East  Level FlightAware Approximate
05:41PM 47.1142 -104.8408 91° East 466 536 35,000  Level Salt Lake Center
05:42PM 47.1136 -104.6544 90° East 464 534 35,000  Level Salt Lake Center
05:43PM 47.1106 -104.4683 91° East 461 531 35,000  Level Salt Lake Center
05:44PM 47.1086 -104.2817 91° East 461 531 35,000  Level Salt Lake Center
05:45PM 47.1056 -104.0942 91° East 462 532 35,000  Level Salt Lake Center
05:46PM 47.1017 -103.8722 91° East 461 531 35,000  Level Salt Lake Center
05:47PM 47.0981 -103.6889 92° East 458 527 35,000  Level Salt Lake Center
05:49PM 47.0956 -103.5008 91° East 460 529 35,000  Level Salt Lake Center
05:50PM 47.0917 -103.3167 92° East 459 528 35,000  Level Salt Lake Center
05:51PM 47.0867 -103.1333 92° East 457 526 35,000  Level Salt Lake Center
05:52PM 47.0814 -102.9119 92° East 456 525 35,000  Level Salt Lake Center
05:53PM 47.0761 -102.7278 92° East 455 524 35,000  Level Salt Lake Center
05:54PM 47.0722 -102.5431 92° East 455 524 35,000  Level Salt Lake Center
05:55PM 47.0650 -102.3619 93° East 452 520 35,000  Level Salt Lake Center
05:56PM 47.0611 -102.1822 92° East 449 517 35,000  Level Salt Lake Center
05:56PM 47.0569 -102.0772 93° East 443 510 35,000  Level Minneapolis Center
05:57PM 47.0372 -101.9014 99° East 442 509 35,000  Level Minneapolis Center
05:58PM 47.0169 -101.7236 99° East 442 509 35,000  Level Minneapolis Center
06:00PM 46.9883 -101.5150 101° East 442 509 35,000  Level Minneapolis Center
06:01PM 46.9608 -101.3106 101° East 435 501 35,000  Level Minneapolis Center
06:02PM 46.9428 -101.1417 99° East 428 493 35,000  Level Minneapolis Center
06:03PM 46.9258 -100.9714 98° East 425 489 35,000  Level Minneapolis Center
06:04PM 46.9108 -100.7939 97° East 430 495 35,000  Level Minneapolis Center
06:05PM 46.8994 -100.6250 96° East 423 487 35,000  Level Minneapolis Center
06:06PM 46.8950 -100.4178 92° East 432 497 35,000  Level Minneapolis Center
06:07PM 46.8894 -100.2339 92° East 447 514 35,000  Level Minneapolis Center
06:08PM 46.8847 -100.0525 92° East 450 518 35,000  Level Minneapolis Center
06:09PM 46.8808 -99.8761 92° East 442 509 35,000  Level Minneapolis Center
06:10PM 46.8750 -99.7042 93° East 431 496 35,000  Level Minneapolis Center
06:11PM 46.8697 -99.5319 93° East 427 491 35,000  Level Minneapolis Center
06:12PM 46.8642 -99.3244 92° East 427 491 35,000  Level Minneapolis Center
06:13PM 46.8564 -99.1444 94° East 438 504 35,000  Level Minneapolis Center
06:14PM 46.8508 -98.9625 92° East 448 516 35,000  Level Minneapolis Center
06:15PM 46.8431 -98.7783 93° East 453 521 35,000  Level Minneapolis Center
06:16PM 46.8361 -98.5956 93° East 455 524 35,000  Level Minneapolis Center
06:17PM 46.8283 -98.3836 93° East 446 513 35,000  Level Minneapolis Center
06:18PM 46.8206 -98.2119 94° East 435 501 35,000  Level Minneapolis Center
06:19PM 46.8136 -98.0419 93° East 427 491 35,000  Level Minneapolis Center
06:20PM 46.8053 -97.8692 94° East 428 493 35,000  Level Minneapolis Center
06:21PM 46.7989 -97.6950 93° East 431 496 35,000  Level Minneapolis Center
06:22PM 46.8056 -97.4811 87° East 441 507 35,000  Level Minneapolis Center
06:23PM 46.8125 -97.3031 87° East 443 510 35,000  Level Minneapolis Center
06:24PM 46.8183 -97.1272 87° East 439 505 35,000  Level Minneapolis Center
06:25PM 46.8247 -96.9533 87° East 434 499 35,000  Level Minneapolis Center
06:26PM 46.8325 -96.7781 86° East 435 501 35,000  Level Minneapolis Center
06:27PM 46.7844 -96.5817 110° East 428 493 35,000  Level Minneapolis Center
06:29PM 46.7294 -96.4186 116° Southeast 445 512 35,000  Level Minneapolis Center
06:30PM 46.6725 -96.2514 116° Southeast 460 529 35,000  Level Minneapolis Center
06:31PM 46.6156 -96.0908 117° Southeast 452 520 35,000  Level Minneapolis Center
06:32PM 46.5592 -95.9250 116° Southeast 457 526 35,000  Level Minneapolis Center
06:33PM 46.5017 -95.7578 116° Southeast 463 533 35,000  Level Minneapolis Center
06:34PM 46.4389 -95.5806 117° Southeast 468 539 35,000  Level Minneapolis Center
06:35PM 46.3775 -95.4064 117° Southeast 471 542 35,000 -60 Level Minneapolis Center
06:36PM 46.3058 -95.2058 117° Southeast 470 541 34,900 -360 Descending Minneapolis Center
06:37PM 46.2494 -95.0467 117° Southeast 455 524 34,300 -1,260 Descending Minneapolis Center
06:38PM 46.1953 -94.8944 117° Southeast 448 516 32,400 -1,920 Descending Minneapolis Center
06:39PM 46.1392 -94.7419 118° Southeast 435 501 30,400 -1,980 Descending Minneapolis Center
06:40PM 46.0786 -94.5772 118° Southeast 456 525 28,300 -2,580 Descending Minneapolis Center
06:41PM 45.9819 -94.4028 129° Southeast 468 539 25,100 -2,820 Descending Minneapolis Center
06:42PM 45.9078 -94.2650 128° Southeast 449 517 22,500 -2,520 Descending Minneapolis Center
06:43PM 45.8347 -94.1283 127° Southeast 437 503 19,900 -2,400 Descending Minneapolis Center
06:44PM 45.7656 -94.0019 128° Southeast 417 480 17,600 -2,280 Descending Minneapolis Center
06:45PM 45.6983 -93.8783 128° Southeast 397 457 15,300 -2,460 Descending Minneapolis Center
06:46PM 45.6197 -93.7336 128° Southeast 385 443 12,600 -2,100 Descending Minneapolis Center
06:47PM 45.5550 -93.6169 128° Southeast 378 435 11,000 -1,020 Descending Minneapolis Center
06:48PM 45.4778 -93.5503 149° Southeast 313 360 10,600 -900 Descending Minneapolis Center
06:49PM 45.4036 -93.5111 160° South 283 326 9,200 -1,680 Descending Minneapolis Center
06:50PM 45.3278 -93.5056 177° South 271 312 7,200 -1,080 Descending Minneapolis Center
06:51PM 45.2522 -93.5028 179° South 274 315 7,000 -480 Descending Minneapolis Center
06:52PM 45.1750 -93.5511 204° Southwest 252 290 6,300 -1,020 Descending Minneapolis Center
06:53PM 45.1403 -93.6292 238° Southwest 237 273 5,000 -840 Descending Minneapolis Center
06:54PM 45.1003 -93.6769 220° Southwest 218 251 4,600 -540 Descending Minneapolis Center
06:55PM 45.0633 -93.6217 133° Southeast 197 227 4,000 -300 Descending Minneapolis Center
06:56PM 45.0400 -93.5600 118° Southeast 181 208 4,000  Level Minneapolis Center
06:58PM 45.0075 -93.4867 122° Southeast 182 209 4,000  Level Minneapolis Center
06:59PM 44.9814 -93.4256 121° Southeast 182 209 4,000 -480 Level Minneapolis Center
07:00PM 44.9550 -93.3647 121° Southeast 182 209 3,100 -840 Descending Minneapolis Center
07:01PM 44.9311 -93.3089 121° Southeast 170 196 2,300 -780 Descending Minneapolis Center
07:02PM 44.9111 -93.2619 121° Southeast 144 166 1,500 -780 Descending Minneapolis Center